createdAt,value
2022-08-02T00:00:12.566Z,99639.13
2022-08-02T00:02:46.864Z,99643.31
2022-08-02T00:05:20.178Z,99645.66
2022-08-02T00:07:48.293Z,99638.63
2022-08-02T00:10:24.362Z,99640.53
2022-08-02T00:12:53.226Z,99637.00
2022-08-02T00:15:20.544Z,99640.88
2022-08-02T00:17:48.630Z,99639.81
2022-08-02T00:20:29.262Z,99643.53
2022-08-02T00:22:58.338Z,99639.69
2022-08-02T00:25:32.161Z,99630.69
2022-08-02T00:28:00.091Z,99633.34
2022-08-02T00:30:34.234Z,99642.88
2022-08-02T00:33:02.893Z,99632.59
2022-08-02T00:35:40.709Z,99631.75
2022-08-02T00:38:23.345Z,99622.00
2022-08-02T00:40:58.217Z,99625.56
2022-08-02T00:43:57.613Z,99625.09
2022-08-02T00:46:24.649Z,99629.00
2022-08-02T00:48:56.824Z,99632.41
2022-08-02T00:51:46.620Z,99620.69
2022-08-02T00:54:38.617Z,99623.47
2022-08-02T00:57:07.898Z,99621.06
2022-08-02T00:59:35.996Z,99619.72
2022-08-02T01:02:18.674Z,99621.50
2022-08-02T01:04:46.785Z,99621.88
2022-08-02T01:07:19.706Z,99622.81
2022-08-02T01:09:48.844Z,99625.84
2022-08-02T01:12:20.211Z,99632.84
2022-08-02T01:14:58.952Z,99626.19
2022-08-02T01:18:03.198Z,99636.91
2022-08-02T01:21:17.306Z,99634.78
2022-08-02T01:24:11.204Z,99629.66
2022-08-02T01:27:00.045Z,99637.91
2022-08-02T01:29:34.850Z,99650.63
2022-08-02T01:32:26.118Z,99643.78
2022-08-02T01:35:50.492Z,99642.03
2022-08-02T01:38:34.155Z,99644.50
2022-08-02T01:41:12.684Z,99638.97
2022-08-02T01:44:03.396Z,99644.00
2022-08-02T01:46:33.402Z,99642.09
2022-08-02T01:49:06.818Z,99642.69
2022-08-02T01:52:04.678Z,99645.03
2022-08-02T01:54:40.285Z,99640.03
2022-08-02T01:57:12.468Z,99648.28
2022-08-02T01:59:42.680Z,99642.69
2022-08-02T02:02:32.747Z,99649.72
2022-08-02T02:05:03.342Z,99646.97
2022-08-02T02:07:35.572Z,99650.72
2022-08-02T02:10:04.401Z,99642.56
2022-08-02T02:12:41.903Z,99644.63
2022-08-02T02:15:11.836Z,99649.16
2022-08-02T02:17:52.044Z,99641.44
2022-08-02T02:20:34.746Z,99651.28
2022-08-02T02:23:03.141Z,99654.56
2022-08-02T02:25:35.882Z,99658.91
2022-08-02T02:28:10.017Z,99655.25
2022-08-02T02:30:40.524Z,99653.69
2022-08-02T02:33:11.987Z,99662.03
2022-08-02T02:35:41.840Z,99652.66
2022-08-02T02:38:13.969Z,99663.53
2022-08-02T02:40:42.414Z,99657.41
2022-08-02T02:43:12.526Z,99656.13
2022-08-02T02:45:41.188Z,99656.53
2022-08-02T02:48:09.941Z,99660.81
2022-08-02T02:50:37.541Z,99644.66
2022-08-02T02:53:07.265Z,99651.06
2022-08-02T02:55:34.772Z,99646.66
2022-08-02T02:58:04.855Z,99666.66
2022-08-02T03:00:50.970Z,99661.72
2022-08-02T03:03:21.483Z,99662.03
2022-08-02T03:05:56.987Z,99663.41
2022-08-02T03:08:24.159Z,99668.56
2022-08-02T03:10:52.274Z,99671.81
2022-08-02T03:13:23.231Z,99673.72
2022-08-02T03:16:01.097Z,99664.19
2022-08-02T03:18:36.381Z,99668.56
2022-08-02T03:21:13.309Z,99665.53
2022-08-02T03:23:43.691Z,99658.44
2022-08-02T03:26:14.961Z,99664.81
2022-08-02T03:28:44.019Z,99668.88
2022-08-02T03:31:13.143Z,99681.56
2022-08-02T03:33:40.704Z,99677.72
2022-08-02T03:36:12.631Z,99686.31
2022-08-02T03:38:44.161Z,99690.06
2022-08-02T03:41:16.925Z,99692.66
2022-08-02T03:43:46.935Z,99685.38
2022-08-02T03:46:16.173Z,99685.97
2022-08-02T03:48:45.008Z,99689.00
2022-08-02T03:51:14.240Z,99691.22
2022-08-02T03:53:48.094Z,99701.56
2022-08-02T03:56:18.079Z,99694.53
2022-08-02T03:58:49.014Z,99696.16
2022-08-02T04:01:17.058Z,99701.22
2022-08-02T04:04:00.421Z,99702.97
2022-08-02T04:06:40.121Z,99713.03
2022-08-02T04:09:10.161Z,99712.00
2022-08-02T04:11:38.201Z,99713.22
2022-08-02T04:14:11.389Z,99710.56
2022-08-02T04:16:42.791Z,99720.63
2022-08-02T04:19:17.757Z,99714.44
2022-08-02T04:21:52.087Z,99718.34
2022-08-02T04:24:32.477Z,99723.28
2022-08-02T04:27:19.105Z,99728.00
2022-08-02T04:29:50.063Z,99726.81
2022-08-02T04:32:24.372Z,99731.50
2022-08-02T04:35:18.586Z,99735.47
2022-08-02T04:38:08.172Z,99740.81
2022-08-02T04:40:28.197Z,99742.53
2022-08-02T04:43:02.128Z,99738.91
2022-08-02T04:45:31.845Z,99747.31
2022-08-02T04:48:05.351Z,99744.97
2022-08-02T04:50:35.291Z,99744.88
2022-08-02T04:53:02.501Z,99742.94
2022-08-02T04:55:30.524Z,99742.19
2022-08-02T04:57:59.100Z,99750.75
2022-08-02T05:00:35.533Z,99747.97
2022-08-02T05:03:03.077Z,99746.66
2022-08-02T05:05:31.356Z,99744.97
2022-08-02T05:07:59.653Z,99746.88
2022-08-02T05:10:30.079Z,99750.97
2022-08-02T05:12:57.205Z,99750.13
2022-08-02T05:15:24.316Z,99763.38
2022-08-02T05:17:52.308Z,99762.50
2022-08-02T05:20:20.232Z,99762.81
2022-08-02T05:22:49.207Z,99764.44
2022-08-02T05:25:16.310Z,99766.56
2022-08-02T05:27:44.394Z,99770.59
2022-08-02T05:30:12.782Z,99767.38
2022-08-02T05:32:48.731Z,99788.38
2022-08-02T05:35:20.733Z,99787.19
2022-08-02T05:37:57.167Z,99787.69
2022-08-02T05:40:31.292Z,99778.69
2022-08-02T05:43:00.515Z,99787.22
2022-08-02T05:45:28.765Z,99782.50
2022-08-02T05:47:56.855Z,99791.63
2022-08-02T05:50:28.938Z,99790.41
2022-08-02T05:53:25.273Z,99784.38
2022-08-02T05:56:06.658Z,99797.59
2022-08-02T05:58:55.648Z,99793.72
2022-08-02T06:01:34.322Z,99797.94
2022-08-02T06:04:09.841Z,99800.47
2022-08-02T06:06:44.479Z,99794.19
2022-08-02T06:09:23.223Z,99799.47
2022-08-02T06:12:10.936Z,99797.13
2022-08-02T06:14:38.378Z,99796.16
2022-08-02T06:17:06.771Z,99790.53
2022-08-02T06:19:50.987Z,99797.50
2022-08-02T06:22:42.409Z,99806.19
2022-08-02T06:25:50.918Z,99806.44
2022-08-02T06:28:20.412Z,99810.97
2022-08-02T06:30:53.048Z,99811.06
2022-08-02T06:33:21.288Z,99815.97
2022-08-02T06:35:56.940Z,99814.38
2022-08-02T06:38:27.897Z,99822.53
2022-08-02T06:41:06.397Z,99822.69
2022-08-02T06:44:13.753Z,99822.63
2022-08-02T06:47:10.232Z,99822.97
2022-08-02T06:49:51.377Z,99820.88
2022-08-02T06:52:27.728Z,99824.41
2022-08-02T06:55:00.383Z,99819.69
2022-08-02T06:57:34.309Z,99826.38
2022-08-02T07:00:07.274Z,99832.28
2022-08-02T07:02:38.001Z,99829.25
2022-08-02T07:05:05.793Z,99830.06
2022-08-02T07:07:33.627Z,99839.81
2022-08-02T07:10:06.981Z,99831.09
2022-08-02T07:12:36.106Z,99827.31
2022-08-02T07:15:12.827Z,99835.94
2022-08-02T07:17:42.853Z,99836.44
2022-08-02T07:20:10.389Z,99831.91
2022-08-02T07:22:40.310Z,99830.34
2022-08-02T07:25:08.341Z,99830.94
2022-08-02T07:27:35.602Z,99830.13
2022-08-02T07:30:05.513Z,99832.75
2022-08-02T07:32:33.420Z,99829.59
2022-08-02T07:35:03.407Z,99833.50
2022-08-02T07:37:58.076Z,99836.53
2022-08-02T07:40:25.628Z,99842.16
2022-08-02T07:43:02.443Z,99832.03
2022-08-02T07:45:55.747Z,99838.84
2022-08-02T07:48:23.803Z,99819.81
2022-08-02T07:50:54.650Z,99820.59
2022-08-02T07:53:30.585Z,99824.56
2022-08-02T07:56:11.175Z,99818.22
2022-08-02T07:58:43.397Z,99811.88
2022-08-02T08:01:11.651Z,99813.28
2022-08-02T08:03:46.136Z,99804.34
2022-08-02T08:06:15.324Z,99816.97
2022-08-02T08:08:44.414Z,99814.28
2022-08-02T08:11:12.547Z,99823.19
2022-08-02T08:13:39.660Z,99828.63
2022-08-02T08:16:06.814Z,99825.22
2022-08-02T08:18:35.581Z,99832.03
2022-08-02T08:21:08.731Z,99836.16
2022-08-02T08:23:36.321Z,99832.31
2022-08-02T08:26:04.834Z,99837.44
2022-08-02T08:28:33.092Z,99816.84
2022-08-02T08:31:00.329Z,99830.84
2022-08-02T08:33:29.351Z,99821.69
2022-08-02T08:36:04.889Z,99835.56
2022-08-02T08:38:31.980Z,99828.75
2022-08-02T08:40:59.240Z,99834.56
2022-08-02T08:43:30.384Z,99836.53
2022-08-02T08:45:58.520Z,99831.38
2022-08-02T08:48:31.988Z,99830.75
2022-08-02T08:51:12.159Z,99827.22
2022-08-02T08:53:46.748Z,99833.06
2022-08-02T08:56:16.630Z,99843.47
2022-08-02T08:58:48.424Z,99838.34
2022-08-02T09:01:17.736Z,99842.47
2022-08-02T09:03:51.274Z,99835.56
2022-08-02T09:06:19.388Z,99833.19
2022-08-02T09:08:46.591Z,99834.53
2022-08-02T09:11:24.561Z,99831.34
2022-08-02T09:14:01.673Z,99835.88
2022-08-02T09:16:31.636Z,99824.53
2022-08-02T09:18:59.631Z,99836.63
2022-08-02T09:21:42.060Z,99840.84
2022-08-02T09:24:20.463Z,99828.06
2022-08-02T09:26:54.592Z,99831.78
2022-08-02T09:29:26.977Z,99831.34
2022-08-02T09:32:03.880Z,99836.66
2022-08-02T09:34:52.472Z,99843.88
2022-08-02T09:37:50.116Z,99839.06
2022-08-02T09:40:17.132Z,99837.97
2022-08-02T09:43:04.195Z,99845.00
2022-08-02T09:45:34.906Z,99842.97
2022-08-02T09:48:09.430Z,99837.91
2022-08-02T09:50:42.871Z,99840.97
2022-08-02T09:53:28.136Z,99840.53
2022-08-02T09:55:58.509Z,99836.09
2022-08-02T09:58:52.228Z,99827.94
2022-08-02T10:01:36.913Z,99833.00
2022-08-02T10:04:15.718Z,99837.47
2022-08-02T10:06:49.719Z,99833.72
2022-08-02T10:09:17.354Z,99835.94
2022-08-02T10:11:44.521Z,99829.59
2022-08-02T10:14:12.368Z,99813.75
2022-08-02T10:16:41.761Z,99820.75
2022-08-02T10:19:13.858Z,99823.63
2022-08-02T10:21:57.032Z,99821.25
2022-08-02T10:24:28.106Z,99824.78
2022-08-02T10:26:59.411Z,99821.75
2022-08-02T10:29:53.416Z,99821.75
2022-08-02T10:32:23.371Z,99824.13
2022-08-02T10:35:20.002Z,99813.09
2022-08-02T10:38:01.646Z,99818.31
2022-08-02T10:40:49.265Z,99816.84
2022-08-02T10:43:44.077Z,99821.78
2022-08-02T10:46:24.824Z,99824.09
2022-08-02T10:52:02.993Z,99811.75
2022-08-02T10:54:40.089Z,99814.31
2022-08-02T10:57:31.612Z,99819.72
2022-08-02T11:00:10.124Z,99824.75
2022-08-02T11:02:52.955Z,99817.22
2022-08-02T11:05:42.563Z,99819.97
2022-08-02T11:08:23.479Z,99820.53
2022-08-02T11:10:50.578Z,99813.72
2022-08-02T11:13:26.887Z,99814.75
2022-08-02T11:16:10.779Z,99813.22
2022-08-02T11:19:00.553Z,99815.06
2022-08-02T11:21:33.118Z,99808.47
2022-08-02T11:24:29.942Z,99815.28
2022-08-02T11:27:08.647Z,99818.91
2022-08-02T11:29:46.641Z,99818.13
2022-08-02T11:32:31.003Z,99815.88
2022-08-02T11:35:00.831Z,99816.38
2022-08-02T11:37:38.795Z,99810.78
2022-08-02T11:40:19.507Z,99830.34
2022-08-02T11:42:51.234Z,99820.00
2022-08-02T11:45:29.746Z,99812.63
2022-08-02T11:47:57.587Z,99817.31
2022-08-02T11:50:29.943Z,99811.38
2022-08-02T11:53:26.721Z,99814.50
2022-08-02T11:55:57.463Z,99811.72
2022-08-02T11:58:31.630Z,99804.28
2022-08-02T12:00:58.868Z,99811.38
2022-08-02T12:03:50.603Z,99811.06
2022-08-02T12:06:20.838Z,99801.53
2022-08-02T12:08:54.625Z,99805.38
2022-08-02T12:11:21.887Z,99803.25
2022-08-02T12:13:57.093Z,99798.56
2022-08-02T12:16:43.677Z,99803.25
2022-08-02T12:19:20.884Z,99790.97
2022-08-02T12:21:47.989Z,99792.31
2022-08-02T12:24:37.709Z,99796.34
2022-08-02T12:27:06.260Z,99790.91
2022-08-02T12:29:58.511Z,99787.72
2022-08-02T12:32:30.140Z,99785.66
2022-08-02T12:35:15.420Z,99798.44
2022-08-02T12:38:11.339Z,99792.72
2022-08-02T12:40:39.072Z,99785.59
2022-08-02T12:43:16.667Z,99785.91
2022-08-02T12:45:56.807Z,99788.13
2022-08-02T12:48:48.157Z,99796.63
2022-08-02T12:51:56.312Z,99783.47
2022-08-02T12:54:31.050Z,99783.72
2022-08-02T12:56:59.252Z,99782.09
2022-08-02T12:59:50.993Z,99777.50
2022-08-02T13:02:18.536Z,99777.38
2022-08-02T13:04:49.792Z,99782.16
2022-08-02T13:07:19.799Z,99781.38
2022-08-02T13:10:03.042Z,99767.97
2022-08-02T13:12:33.516Z,99767.63
2022-08-02T13:15:02.843Z,99767.66
2022-08-02T13:17:30.118Z,99763.06
2022-08-02T13:19:57.194Z,99760.78
2022-08-02T13:22:24.517Z,99756.38
2022-08-02T13:25:00.940Z,99747.22
2022-08-02T13:27:28.772Z,99752.00
2022-08-02T13:29:58.938Z,99747.81
2022-08-02T13:32:29.194Z,99744.88
2022-08-02T13:35:01.446Z,99743.19
2022-08-02T13:37:28.522Z,99741.06
2022-08-02T13:40:19.990Z,99734.72
2022-08-02T13:42:44.631Z,99741.94
2022-08-02T13:45:13.804Z,99750.31
2022-08-02T13:47:57.178Z,99740.88
2022-08-02T13:50:32.527Z,99742.47
2022-08-02T13:52:59.626Z,99730.09
2022-08-02T13:55:26.818Z,99715.94
2022-08-02T13:57:54.472Z,99717.84
2022-08-02T14:00:35.642Z,99724.34
2022-08-02T14:03:07.793Z,99725.50
2022-08-02T14:05:47.496Z,99711.00
2022-08-02T14:08:23.118Z,99710.97
2022-08-02T14:10:52.363Z,99701.81
2022-08-02T14:13:24.635Z,99710.59
2022-08-02T14:15:51.829Z,99703.09
2022-08-02T14:18:18.964Z,99709.53
2022-08-02T14:20:46.262Z,99703.09
2022-08-02T14:23:15.465Z,99705.97
2022-08-02T14:25:43.797Z,99697.19
2022-08-02T14:28:11.038Z,99697.16
2022-08-02T14:30:39.277Z,99694.38
2022-08-02T14:33:06.483Z,99697.59
2022-08-02T14:35:33.955Z,99697.50
2022-08-02T14:38:02.095Z,99698.75
2022-08-02T14:40:32.145Z,99688.88
2022-08-02T14:43:01.385Z,99692.38
2022-08-02T14:45:40.739Z,99690.25
2022-08-02T14:48:11.769Z,99696.69
2022-08-02T14:50:46.536Z,99698.81
2022-08-02T14:53:21.821Z,99700.72
2022-08-02T14:55:51.339Z,99690.91
2022-08-02T14:58:18.518Z,99689.47
2022-08-02T15:00:54.869Z,99693.66
2022-08-02T15:03:21.978Z,99694.28
2022-08-02T15:05:50.473Z,99683.81
2022-08-02T15:08:19.464Z,99696.78
2022-08-02T15:10:56.757Z,99695.09
2022-08-02T15:13:25.827Z,99695.66
2022-08-02T15:15:54.001Z,99692.59
2022-08-02T15:18:21.439Z,99698.06
2022-08-02T15:21:52.649Z,99687.88
2022-08-02T15:24:02.663Z,99687.50
2022-08-02T15:26:39.701Z,99691.38
2022-08-02T15:29:14.912Z,99685.63
2022-08-02T15:31:43.620Z,99689.97
2022-08-02T15:34:10.965Z,99688.25
2022-08-02T15:36:52.476Z,99680.59
2022-08-02T15:39:19.736Z,99681.31
2022-08-02T15:41:46.807Z,99688.16
2022-08-02T15:44:14.888Z,99675.56
2022-08-02T15:46:43.976Z,99681.28
2022-08-02T15:49:11.283Z,99672.53
2022-08-02T15:51:38.363Z,99679.31
2022-08-02T15:54:05.463Z,99683.03
2022-08-02T15:56:33.481Z,99690.19
2022-08-02T15:59:00.534Z,99681.63
2022-08-02T16:01:36.960Z,99678.69
2022-08-02T16:04:07.350Z,99680.88
2022-08-02T16:06:36.993Z,99679.78
2022-08-02T16:09:08.449Z,99681.84
2022-08-02T16:11:35.630Z,99684.59
2022-08-02T16:14:08.876Z,99683.09
2022-08-02T16:16:36.692Z,99685.88
2022-08-02T16:19:45.937Z,99682.50
2022-08-02T16:21:58.378Z,99689.28
2022-08-02T16:24:26.509Z,99683.97
2022-08-02T16:26:53.583Z,99674.44
2022-08-02T16:29:21.614Z,99681.66
2022-08-02T16:31:54.456Z,99686.41
2022-08-02T16:34:23.492Z,99685.00
2022-08-02T16:36:50.589Z,99681.25
2022-08-02T16:39:22.711Z,99676.91
2022-08-02T16:41:53.151Z,99690.19
2022-08-02T16:44:29.272Z,99691.06
2022-08-02T16:47:13.994Z,99688.78
2022-08-02T16:50:06.538Z,99682.66
2022-08-02T16:52:34.362Z,99690.88
2022-08-02T16:55:02.214Z,99686.84
2022-08-02T16:57:43.166Z,99678.22
2022-08-02T17:00:15.585Z,99679.63
2022-08-02T17:02:43.399Z,99689.47
2022-08-02T17:05:14.634Z,99682.16
2022-08-02T17:08:07.723Z,99674.75
2022-08-02T17:10:34.908Z,99681.41
2022-08-02T17:13:11.380Z,99674.56
2022-08-02T17:16:01.329Z,99685.59
2022-08-02T17:18:33.140Z,99666.94
2022-08-02T17:21:04.290Z,99675.44
2022-08-02T17:24:04.025Z,99672.00
2022-08-02T17:26:19.888Z,99678.13
2022-08-02T17:29:17.755Z,99679.91
2022-08-02T17:31:37.291Z,99688.69
2022-08-02T17:34:11.996Z,99686.16
2022-08-02T17:36:41.244Z,99689.72
2022-08-02T17:39:08.383Z,99695.59
2022-08-02T17:41:48.951Z,99691.91
2022-08-02T17:44:37.566Z,99692.47
2022-08-02T17:47:06.477Z,99682.69
2022-08-02T17:49:36.116Z,99684.91
2022-08-02T17:52:47.795Z,99684.22
2022-08-02T17:54:52.736Z,99679.66
2022-08-02T17:57:55.696Z,99688.38
2022-08-02T18:00:15.277Z,99692.38
2022-08-02T18:02:43.857Z,99689.13
2022-08-02T18:05:20.397Z,99688.84
2022-08-02T18:10:37.827Z,99700.50
2022-08-02T18:13:05.497Z,99696.28
2022-08-02T18:15:36.696Z,99700.19
2022-08-02T18:18:03.881Z,99704.81
2022-08-02T18:20:31.394Z,99706.84
2022-08-02T18:22:59.061Z,99706.47
2022-08-02T18:25:37.729Z,99713.38
2022-08-02T18:28:15.437Z,99715.94
2022-08-02T18:30:44.635Z,99721.31
2022-08-02T18:33:57.984Z,99721.56
2022-08-02T18:35:59.731Z,99724.41
2022-08-02T18:38:31.894Z,99725.63
2022-08-02T18:41:03.070Z,99726.41
2022-08-02T18:43:34.487Z,99721.72
2022-08-02T18:46:15.317Z,99727.69
2022-08-02T18:48:48.056Z,99735.03
2022-08-02T18:51:40.682Z,99736.56
2022-08-02T18:54:08.534Z,99743.91
2022-08-02T19:00:20.558Z,99742.09
2022-08-02T19:02:54.798Z,99746.97
2022-08-02T19:05:24.290Z,99753.56
2022-08-02T19:08:12.338Z,99753.44
2022-08-02T19:10:49.073Z,99756.44
2022-08-02T19:13:52.287Z,99759.84
2022-08-02T19:16:52.889Z,99758.75
2022-08-02T19:19:28.847Z,99760.16
2022-08-02T19:22:18.051Z,99759.34
2022-08-02T19:25:00.196Z,99754.06
2022-08-02T19:27:32.683Z,99756.88
2022-08-02T19:30:07.612Z,99766.63
2022-08-02T19:32:40.240Z,99763.22
2022-08-02T19:35:36.968Z,99760.69
2022-08-02T19:38:30.560Z,99761.53
2022-08-02T19:41:01.701Z,99755.66
2022-08-02T19:44:25.767Z,99757.03
2022-08-02T19:46:33.516Z,99754.59
2022-08-02T19:49:16.352Z,99753.47
2022-08-02T19:51:55.029Z,99761.53
2022-08-02T19:54:44.801Z,99760.25
2022-08-02T19:57:19.402Z,99760.19
2022-08-02T19:59:53.869Z,99759.31
2022-08-02T20:02:29.324Z,99761.50
2022-08-02T20:05:16.014Z,99755.94
2022-08-02T20:07:54.277Z,99761.09
2022-08-02T20:10:25.106Z,99766.38
2022-08-02T20:12:56.837Z,99762.47
2022-08-02T20:15:51.899Z,99765.88
2022-08-02T20:18:11.155Z,99765.94
2022-08-02T20:20:51.675Z,99770.41
2022-08-02T20:23:33.675Z,99779.69
2022-08-02T20:26:09.018Z,99779.50
2022-08-02T20:28:36.348Z,99771.19
2022-08-02T20:31:19.557Z,99765.59
2022-08-02T20:33:55.514Z,99770.50
2022-08-02T20:36:23.751Z,99767.09
2022-08-02T20:39:06.279Z,99773.19
2022-08-02T20:42:07.927Z,99762.22
2022-08-02T20:44:57.791Z,99768.78
2022-08-02T20:47:39.611Z,99771.78
2022-08-02T20:50:31.667Z,99769.81
2022-08-02T20:53:03.180Z,99760.31
2022-08-02T20:55:36.037Z,99758.09
2022-08-02T20:58:14.967Z,99763.00
2022-08-02T21:00:52.717Z,99761.00
2022-08-02T21:03:20.549Z,99765.16
2022-08-02T21:06:17.049Z,99759.03
2022-08-02T21:08:53.220Z,99769.72
2022-08-02T21:11:33.491Z,99765.47
2022-08-02T21:14:07.390Z,99762.84
2022-08-02T21:16:37.383Z,99764.00
2022-08-02T21:19:07.955Z,99758.59
2022-08-02T21:21:37.863Z,99760.16
2022-08-02T21:24:05.529Z,99764.00
2022-08-02T21:26:37.658Z,99761.50
2022-08-02T21:29:05.039Z,99762.84
2022-08-02T21:31:36.121Z,99770.19
2022-08-02T21:34:21.676Z,99771.66
2022-08-02T21:36:53.536Z,99770.97
2022-08-02T21:39:22.055Z,99778.34
2022-08-02T21:41:50.331Z,99774.06
2022-08-02T21:44:22.777Z,99770.38
2022-08-02T21:46:54.924Z,99768.06
2022-08-02T21:49:41.044Z,99771.66
2022-08-02T21:52:12.810Z,99772.44
2022-08-02T21:54:40.996Z,99772.97
2022-08-02T21:57:16.828Z,99770.06
2022-08-02T21:59:52.876Z,99765.56
2022-08-02T22:02:47.837Z,99777.72
2022-08-02T22:05:14.743Z,99782.63
2022-08-02T22:07:45.835Z,99782.94
2022-08-02T22:10:19.226Z,99782.00
2022-08-02T22:12:47.447Z,99778.38
2022-08-02T22:15:35.840Z,99780.66
2022-08-02T22:18:08.483Z,99786.91
2022-08-02T22:20:44.845Z,99789.78
2022-08-02T22:23:51.178Z,99785.94
2022-08-02T22:26:19.439Z,99783.72
2022-08-02T22:28:51.103Z,99789.25
2022-08-02T22:34:26.495Z,99794.06
2022-08-02T22:37:00.822Z,99787.97
2022-08-02T22:39:29.023Z,99787.13
2022-08-02T22:42:05.638Z,99794.72
2022-08-02T22:44:36.094Z,99789.59
2022-08-02T22:47:14.807Z,99786.25
2022-08-02T22:49:52.877Z,99785.53
2022-08-02T22:52:23.909Z,99782.72
2022-08-02T22:54:51.234Z,99790.75
2022-08-02T22:57:30.538Z,99788.78
2022-08-02T22:58:59.610Z,99692.97
2022-08-02T22:59:04.978Z,99790.22
2022-08-02T23:00:10.172Z,99783.66
2022-08-02T23:02:49.412Z,99787.31
2022-08-02T23:05:17.710Z,99786.00
2022-08-02T23:07:49.950Z,99786.25
2022-08-02T23:10:17.058Z,99783.03
2022-08-02T23:12:56.477Z,99791.19
2022-08-02T23:15:27.637Z,99793.13
2022-08-02T23:18:14.018Z,99796.63
2022-08-02T23:20:54.430Z,99786.50
2022-08-02T23:23:34.884Z,99790.34
2022-08-02T23:26:04.167Z,99788.00
2022-08-02T23:28:32.560Z,99779.44
2022-08-02T23:31:49.441Z,99785.63
2022-08-02T23:34:18.556Z,99789.28
2022-08-02T23:36:47.734Z,99783.63
2022-08-02T23:39:16.681Z,99785.00
2022-08-02T23:42:03.299Z,99783.16
2022-08-02T23:44:31.325Z,99781.84
2022-08-02T23:47:00.670Z,99784.34
2022-08-02T23:49:30.974Z,99775.16
2022-08-02T23:52:01.720Z,99771.97
2022-08-02T23:54:30.204Z,99780.56
2022-08-02T23:56:57.463Z,99787.63
2022-08-02T23:59:25.580Z,99772.88
